sensor_id;sensor_type;location;lat;lon;timestamp;pressure;altitude;pressure_sealevel;temperature;humidity
59367;BME280;45163;47.690;11.770;2023-05-25T00:01:18;93563.59;;;11.05;100.00
59367;BME280;45163;47.690;11.770;2023-05-25T00:03:44;93566.16;;;11.12;100.00
59367;BME280;45163;47.690;11.770;2023-05-25T00:06:11;93562.44;;;11.19;100.00
59367;BME280;45163;47.690;11.770;2023-05-25T00:08:40;93560.56;;;11.16;100.00
59367;BME280;45163;47.690;11.770;2023-05-25T00:11:06;93560.88;;;11.05;100.00
59367;BME280;45163;47.690;11.770;2023-05-25T00:13:32;93555.66;;;11.11;100.00
59367;BME280;45163;47.690;11.770;2023-05-25T00:15:58;93545.25;;;11.06;100.00
59367;BME280;45163;47.690;11.770;2023-05-25T00:18:24;93550.56;;;10.96;100.00
59367;BME280;45163;47.690;11.770;2023-05-25T00:20:50;93551.50;;;10.90;100.00
59367;BME280;45163;47.690;11.770;2023-05-25T00:23:19;93562.19;;;10.84;100.00
59367;BME280;45163;47.690;11.770;2023-05-25T00:25:46;93558.34;;;10.82;100.00
59367;BME280;45163;47.690;11.770;2023-05-25T00:28:12;93554.19;;;10.77;100.00
59367;BME280;45163;47.690;11.770;2023-05-25T00:30:38;93558.22;;;10.72;100.00
59367;BME280;45163;47.690;11.770;2023-05-25T00:33:04;93565.28;;;10.70;100.00
59367;BME280;45163;47.690;11.770;2023-05-25T00:35:30;93554.56;;;10.63;100.00
59367;BME280;45163;47.690;11.770;2023-05-25T00:37:56;93556.03;;;10.51;100.00
59367;BME280;45163;47.690;11.770;2023-05-25T00:40:22;93559.94;;;10.34;100.00
59367;BME280;45163;47.690;11.770;2023-05-25T00:42:49;93555.41;;;10.27;100.00
59367;BME280;45163;47.690;11.770;2023-05-25T00:45:15;93561.38;;;10.22;100.00
59367;BME280;45163;47.690;11.770;2023-05-25T00:47:42;93556.75;;;10.19;100.00
59367;BME280;45163;47.690;11.770;2023-05-25T00:50:10;93556.75;;;10.19;100.00
59367;BME280;45163;47.690;11.770;2023-05-25T00:52:39;93555.38;;;10.11;100.00
59367;BME280;45163;47.690;11.770;2023-05-25T00:55:06;93548.75;;;10.12;100.00
59367;BME280;45163;47.690;11.770;2023-05-25T00:57:34;93551.56;;;10.08;100.00
59367;BME280;45163;47.690;11.770;2023-05-25T01:00:03;93551.47;;;10.12;100.00
59367;BME280;45163;47.690;11.770;2023-05-25T01:02:37;93548.41;;;10.10;100.00
59367;BME280;45163;47.690;11.770;2023-05-25T01:05:07;93552.16;;;10.00;100.00
59367;BME280;45163;47.690;11.770;2023-05-25T01:07:35;93563.91;;;9.96;100.00
59367;BME280;45163;47.690;11.770;2023-05-25T01:10:04;93552.56;;;9.98;100.00
59367;BME280;45163;47.690;11.770;2023-05-25T01:12:36;93558.09;;;9.94;100.00
59367;BME280;45163;47.690;11.770;2023-05-25T01:15:04;93556.56;;;9.93;100.00
59367;BME280;45163;47.690;11.770;2023-05-25T01:17:30;93561.84;;;9.84;100.00
59367;BME280;45163;47.690;11.770;2023-05-25T01:19:56;93561.56;;;9.79;100.00
59367;BME280;45163;47.690;11.770;2023-05-25T01:22:34;93562.75;;;9.78;100.00
59367;BME280;45163;47.690;11.770;2023-05-25T01:25:15;93562.50;;;9.72;100.00
59367;BME280;45163;47.690;11.770;2023-05-25T01:27:47;93562.31;;;9.63;100.00
59367;BME280;45163;47.690;11.770;2023-05-25T01:30:18;93563.09;;;9.43;100.00
59367;BME280;45163;47.690;11.770;2023-05-25T01:32:44;93562.94;;;9.51;100.00
59367;BME280;45163;47.690;11.770;2023-05-25T01:35:12;93575.94;;;9.63;100.00
59367;BME280;45163;47.690;11.770;2023-05-25T01:37:44;93572.56;;;9.75;100.00
59367;BME280;45163;47.690;11.770;2023-05-25T01:40:12;93572.03;;;9.80;100.00
59367;BME280;45163;47.690;11.770;2023-05-25T01:42:39;93579.13;;;9.94;100.00
59367;BME280;45163;47.690;11.770;2023-05-25T01:45:05;93570.03;;;10.01;100.00
59367;BME280;45163;47.690;11.770;2023-05-25T01:50:42;93568.91;;;9.98;100.00
59367;BME280;45163;47.690;11.770;2023-05-25T01:53:25;93563.53;;;9.94;100.00
59367;BME280;45163;47.690;11.770;2023-05-25T01:56:01;93571.38;;;9.92;100.00
59367;BME280;45163;47.690;11.770;2023-05-25T01:58:41;93566.78;;;9.89;100.00
59367;BME280;45163;47.690;11.770;2023-05-25T02:01:08;93563.06;;;10.00;100.00
59367;BME280;45163;47.690;11.770;2023-05-25T02:03:36;93570.72;;;10.05;100.00
59367;BME280;45163;47.690;11.770;2023-05-25T02:06:03;93566.13;;;10.02;100.00
59367;BME280;45163;47.690;11.770;2023-05-25T02:08:29;93557.03;;;10.08;100.00
59367;BME280;45163;47.690;11.770;2023-05-25T02:10:55;93554.69;;;10.07;100.00
59367;BME280;45163;47.690;11.770;2023-05-25T02:13:21;93549.16;;;10.10;100.00
59367;BME280;45163;47.690;11.770;2023-05-25T02:15:47;93556.50;;;10.13;100.00
59367;BME280;45163;47.690;11.770;2023-05-25T02:18:13;93554.78;;;10.03;100.00
59367;BME280;45163;47.690;11.770;2023-05-25T02:20:43;93559.66;;;9.95;100.00
59367;BME280;45163;47.690;11.770;2023-05-25T02:23:09;93566.78;;;9.89;100.00
59367;BME280;45163;47.690;11.770;2023-05-25T02:25:35;93561.06;;;9.84;100.00
59367;BME280;45163;47.690;11.770;2023-05-25T02:28:02;93569.19;;;9.87;100.00
59367;BME280;45163;47.690;11.770;2023-05-25T02:30:29;93569.09;;;9.91;100.00
59367;BME280;45163;47.690;11.770;2023-05-25T02:32:55;93577.34;;;9.87;100.00
59367;BME280;45163;47.690;11.770;2023-05-25T02:35:21;93570.47;;;9.99;100.00
59367;BME280;45163;47.690;11.770;2023-05-25T02:37:50;93577.88;;;9.98;100.00
59367;BME280;45163;47.690;11.770;2023-05-25T02:40:16;93572.00;;;10.00;100.00
59367;BME280;45163;47.690;11.770;2023-05-25T02:42:42;93573.69;;;9.94;100.00
59367;BME280;45163;47.690;11.770;2023-05-25T02:45:09;93565.06;;;9.79;100.00
59367;BME280;45163;47.690;11.770;2023-05-25T02:47:35;93557.72;;;9.76;100.00
59367;BME280;45163;47.690;11.770;2023-05-25T02:50:02;93559.25;;;9.77;100.00
59367;BME280;45163;47.690;11.770;2023-05-25T02:52:28;93553.53;;;9.71;100.00
59367;BME280;45163;47.690;11.770;2023-05-25T02:54:56;93559.25;;;9.77;100.00
59367;BME280;45163;47.690;11.770;2023-05-25T02:57:22;93556.03;;;9.82;100.00
59367;BME280;45163;47.690;11.770;2023-05-25T02:59:48;93558.69;;;9.86;100.00
59367;BME280;45163;47.690;11.770;2023-05-25T03:02:14;93548.13;;;9.88;100.00
59367;BME280;45163;47.690;11.770;2023-05-25T03:04:43;93557.28;;;9.78;100.00
59367;BME280;45163;47.690;11.770;2023-05-25T03:07:11;93562.97;;;9.87;100.00
59367;BME280;45163;47.690;11.770;2023-05-25T03:09:38;93561.66;;;9.75;100.00
59367;BME280;45163;47.690;11.770;2023-05-25T03:12:04;93558.50;;;9.77;100.00
59367;BME280;45163;47.690;11.770;2023-05-25T03:14:31;93561.47;;;9.82;100.00
59367;BME280;45163;47.690;11.770;2023-05-25T03:16:57;93562.25;;;9.83;100.00
59367;BME280;45163;47.690;11.770;2023-05-25T03:19:23;93557.72;;;9.76;100.00
59367;BME280;45163;47.690;11.770;2023-05-25T03:21:49;93561.72;;;9.71;100.00
59367;BME280;45163;47.690;11.770;2023-05-25T03:24:15;93549.72;;;9.85;100.00
59367;BME280;45163;47.690;11.770;2023-05-25T03:26:41;93560.31;;;9.83;100.00
59367;BME280;45163;47.690;11.770;2023-05-25T03:29:07;93561.56;;;9.79;100.00
59367;BME280;45163;47.690;11.770;2023-05-25T03:31:33;93557.28;;;9.78;100.00
59367;BME280;45163;47.690;11.770;2023-05-25T03:33:59;93558.50;;;9.77;100.00
59367;BME280;45163;47.690;11.770;2023-05-25T03:36:25;93559.31;;;9.73;100.00
59367;BME280;45163;47.690;11.770;2023-05-25T03:38:55;93570.34;;;9.70;100.00
59367;BME280;45163;47.690;11.770;2023-05-25T03:41:21;93567.06;;;9.59;100.00
59367;BME280;45163;47.690;11.770;2023-05-25T03:43:47;93572.25;;;9.53;100.00
59367;BME280;45163;47.690;11.770;2023-05-25T03:46:13;93572.50;;;9.59;100.00
59367;BME280;45163;47.690;11.770;2023-05-25T03:48:39;93571.75;;;9.58;100.00
59367;BME280;45163;47.690;11.770;2023-05-25T03:51:05;93569.53;;;9.53;100.00
59367;BME280;45163;47.690;11.770;2023-05-25T03:53:31;93568.91;;;9.45;100.00
59367;BME280;45163;47.690;11.770;2023-05-25T03:55:57;93558.47;;;9.40;100.00
59367;BME280;45163;47.690;11.770;2023-05-25T03:58:23;93574.75;;;9.44;100.00
59367;BME280;45163;47.690;11.770;2023-05-25T04:00:49;93582.53;;;9.45;100.00
59367;BME280;45163;47.690;11.770;2023-05-25T04:03:16;93577.00;;;9.49;100.00
59367;BME280;45163;47.690;11.770;2023-05-25T04:05:42;93580.75;;;9.55;100.00
59367;BME280;45163;47.690;11.770;2023-05-25T04:08:13;93585.56;;;9.47;100.00
59367;BME280;45163;47.690;11.770;2023-05-25T04:10:44;93591.22;;;9.57;100.00
59367;BME280;45163;47.690;11.770;2023-05-25T04:13:11;93600.19;;;9.57;100.00
59367;BME280;45163;47.690;11.770;2023-05-25T04:15:37;93599.41;;;9.57;100.00
59367;BME280;45163;47.690;11.770;2023-05-25T04:18:03;93596.47;;;9.47;100.00
59367;BME280;45163;47.690;11.770;2023-05-25T04:20:29;93592.03;;;9.37;100.00
59367;BME280;45163;47.690;11.770;2023-05-25T04:22:55;93608.13;;;9.48;100.00
59367;BME280;45163;47.690;11.770;2023-05-25T04:25:22;93607.38;;;9.47;100.00
59367;BME280;45163;47.690;11.770;2023-05-25T04:27:48;93604.78;;;9.40;100.00
59367;BME280;45163;47.690;11.770;2023-05-25T04:30:14;93592.28;;;9.43;100.00
59367;BME280;45163;47.690;11.770;2023-05-25T04:32:40;93601.16;;;9.47;100.00
59367;BME280;45163;47.690;11.770;2023-05-25T04:35:07;93598.94;;;9.42;100.00
59367;BME280;45163;47.690;11.770;2023-05-25T04:37:33;93599.75;;;9.39;100.00
59367;BME280;45163;47.690;11.770;2023-05-25T04:40:02;93603.53;;;9.45;100.00
59367;BME280;45163;47.690;11.770;2023-05-25T04:42:39;93599.75;;;9.39;100.00
59367;BME280;45163;47.690;11.770;2023-05-25T04:45:07;93591.59;;;9.39;100.00
59367;BME280;45163;47.690;11.770;2023-05-25T04:47:36;93593.63;;;9.35;100.00
59367;BME280;45163;47.690;11.770;2023-05-25T04:50:07;93585.72;;;9.20;100.00
59367;BME280;45163;47.690;11.770;2023-05-25T04:52:34;93595.25;;;9.32;100.00
59367;BME280;45163;47.690;11.770;2023-05-25T04:55:00;93591.84;;;9.44;100.00
59367;BME280;45163;47.690;11.770;2023-05-25T04:57:28;93601.69;;;9.78;100.00
59367;BME280;45163;47.690;11.770;2023-05-25T04:59:55;93604.44;;;9.94;100.00
59367;BME280;45163;47.690;11.770;2023-05-25T05:02:21;93600.25;;;9.90;100.00
59367;BME280;45163;47.690;11.770;2023-05-25T05:04:47;93598.63;;;10.12;100.00
59367;BME280;45163;47.690;11.770;2023-05-25T05:07:17;93606.53;;;10.23;100.00
59367;BME280;45163;47.690;11.770;2023-05-25T05:09:44;93606.16;;;10.25;100.00
59367;BME280;45163;47.690;11.770;2023-05-25T05:12:10;93599.94;;;10.40;100.00
59367;BME280;45163;47.690;11.770;2023-05-25T05:14:36;93604.81;;;10.33;100.00
59367;BME280;45163;47.690;11.770;2023-05-25T05:17:02;93597.47;;;10.62;100.00
59367;BME280;45163;47.690;11.770;2023-05-25T05:19:29;93590.44;;;10.94;100.00
59367;BME280;45163;47.690;11.770;2023-05-25T05:21:56;93596.59;;;10.82;100.00
59367;BME280;45163;47.690;11.770;2023-05-25T05:24:21;93591.47;;;11.29;100.00
59367;BME280;45163;47.690;11.770;2023-05-25T05:26:47;93591.56;;;11.26;100.00
59367;BME280;45163;47.690;11.770;2023-05-25T05:29:13;93588.56;;;11.49;100.00
59367;BME280;45163;47.690;11.770;2023-05-25T05:31:39;93596.19;;;11.70;100.00
59367;BME280;45163;47.690;11.770;2023-05-25T05:34:05;93595.59;;;12.05;100.00
59367;BME280;45163;47.690;11.770;2023-05-25T05:36:31;93592.31;;;12.10;100.00
59367;BME280;45163;47.690;11.770;2023-05-25T05:38:58;93584.66;;;12.05;100.00
59367;BME280;45163;47.690;11.770;2023-05-25T05:41:24;93586.81;;;12.48;100.00
59367;BME280;45163;47.690;11.770;2023-05-25T05:43:50;93570.50;;;12.32;100.00
59367;BME280;45163;47.690;11.770;2023-05-25T05:46:16;93575.75;;;12.64;100.00
59367;BME280;45163;47.690;11.770;2023-05-25T05:48:42;93572.94;;;12.90;100.00
59367;BME280;45163;47.690;11.770;2023-05-25T05:51:11;93575.09;;;12.48;100.00
59367;BME280;45163;47.690;11.770;2023-05-25T05:53:37;93576.25;;;12.85;100.00
59367;BME280;45163;47.690;11.770;2023-05-25T05:56:03;93578.66;;;13.17;100.00
59367;BME280;45163;47.690;11.770;2023-05-25T05:58:32;93574.31;;;13.07;100.00
59367;BME280;45163;47.690;11.770;2023-05-25T06:00:58;93576.16;;;13.10;100.00
59367;BME280;45163;47.690;11.770;2023-05-25T06:03:24;93572.25;;;12.99;100.00
59367;BME280;45163;47.690;11.770;2023-05-25T06:05:52;93572.00;;;12.71;100.00
59367;BME280;45163;47.690;11.770;2023-05-25T06:08:18;93570.63;;;13.01;100.00
59367;BME280;45163;47.690;11.770;2023-05-25T06:10:44;93573.47;;;13.54;100.00
59367;BME280;45163;47.690;11.770;2023-05-25T06:13:10;93574.63;;;13.66;100.00
59367;BME280;45163;47.690;11.770;2023-05-25T06:15:36;93565.84;;;13.71;100.00
59367;BME280;45163;47.690;11.770;2023-05-25T06:18:02;93573.66;;;13.82;100.00
59367;BME280;45163;47.690;11.770;2023-05-25T06:20:28;93562.44;;;14.60;100.00
59367;BME280;45163;47.690;11.770;2023-05-25T06:22:54;93558.81;;;15.00;100.00
59367;BME280;45163;47.690;11.770;2023-05-25T06:25:20;93558.84;;;15.64;100.00
59367;BME280;45163;47.690;11.770;2023-05-25T06:27:46;93566.31;;;15.45;100.00
59367;BME280;45163;47.690;11.770;2023-05-25T06:30:12;93554.03;;;16.02;100.00
59367;BME280;45163;47.690;11.770;2023-05-25T06:32:38;93550.56;;;15.74;100.00
59367;BME280;45163;47.690;11.770;2023-05-25T06:35:05;93556.22;;;15.79;100.00
59367;BME280;45163;47.690;11.770;2023-05-25T06:37:31;93557.22;;;16.00;100.00
59367;BME280;45163;47.690;11.770;2023-05-25T06:40:03;93555.03;;;17.13;100.00
59367;BME280;45163;47.690;11.770;2023-05-25T06:42:30;93548.56;;;16.35;100.00
59367;BME280;45163;47.690;11.770;2023-05-25T06:44:56;93560.69;;;16.95;100.00
59367;BME280;45163;47.690;11.770;2023-05-25T06:47:22;93553.94;;;17.73;100.00
59367;BME280;45163;47.690;11.770;2023-05-25T06:49:48;93555.41;;;17.98;100.00
59367;BME280;45163;47.690;11.770;2023-05-25T06:52:14;93564.44;;;17.45;100.00
59367;BME280;45163;47.690;11.770;2023-05-25T06:54:40;93555.91;;;17.58;100.00
59367;BME280;45163;47.690;11.770;2023-05-25T06:57:06;93557.47;;;17.35;100.00
59367;BME280;45163;47.690;11.770;2023-05-25T06:59:32;93555.31;;;17.39;100.00
59367;BME280;45163;47.690;11.770;2023-05-25T07:01:59;93565.28;;;18.34;100.00
59367;BME280;45163;47.690;11.770;2023-05-25T07:04:25;93571.50;;;18.79;100.00
59367;BME280;45163;47.690;11.770;2023-05-25T07:06:51;93576.34;;;18.84;100.00
59367;BME280;45163;47.690;11.770;2023-05-25T07:09:17;93575.16;;;19.67;100.00
59367;BME280;45163;47.690;11.770;2023-05-25T07:11:46;93577.31;;;18.31;100.00
59367;BME280;45163;47.690;11.770;2023-05-25T07:14:12;93572.03;;;18.98;100.00
59367;BME280;45163;47.690;11.770;2023-05-25T07:16:38;93569.06;;;19.42;100.00
59367;BME280;45163;47.690;11.770;2023-05-25T07:19:04;93571.06;;;19.22;100.00
59367;BME280;45163;47.690;11.770;2023-05-25T07:21:31;93563.19;;;19.14;100.00
59367;BME280;45163;47.690;11.770;2023-05-25T07:23:59;93569.13;;;19.48;100.00
59367;BME280;45163;47.690;11.770;2023-05-25T07:26:26;93572.53;;;19.17;100.00
59367;BME280;45163;47.690;11.770;2023-05-25T07:28:52;93566.50;;;18.48;100.00
59367;BME280;45163;47.690;11.770;2023-05-25T07:31:18;93570.19;;;18.60;100.00
59367;BME280;45163;47.690;11.770;2023-05-25T07:33:45;93562.38;;;20.27;100.00
59367;BME280;45163;47.690;11.770;2023-05-25T07:36:11;93568.88;;;19.93;100.00
59367;BME280;45163;47.690;11.770;2023-05-25T07:38:37;93572.41;;;21.25;100.00
59367;BME280;45163;47.690;11.770;2023-05-25T07:41:06;93569.34;;;21.77;100.00
59367;BME280;45163;47.690;11.770;2023-05-25T07:43:32;93570.31;;;21.63;100.00
59367;BME280;45163;47.690;11.770;2023-05-25T07:45:59;93572.13;;;21.23;100.00
59367;BME280;45163;47.690;11.770;2023-05-25T07:48:26;93574.81;;;21.06;100.00
59367;BME280;45163;47.690;11.770;2023-05-25T07:50:52;93578.09;;;22.24;100.00
59367;BME280;45163;47.690;11.770;2023-05-25T07:53:18;93576.28;;;22.77;100.00
59367;BME280;45163;47.690;11.770;2023-05-25T07:55:44;93568.19;;;20.55;100.00
59367;BME280;45163;47.690;11.770;2023-05-25T07:58:10;93568.38;;;22.03;100.00
59367;BME280;45163;47.690;11.770;2023-05-25T08:00:36;93568.72;;;20.59;100.00
59367;BME280;45163;47.690;11.770;2023-05-25T08:03:02;93571.03;;;20.09;100.00
59367;BME280;45163;47.690;11.770;2023-05-25T08:05:29;93570.72;;;20.53;100.00
59367;BME280;45163;47.690;11.770;2023-05-25T08:07:55;93576.59;;;19.83;100.00
59367;BME280;45163;47.690;11.770;2023-05-25T08:10:21;93578.53;;;20.29;100.00
59367;BME280;45163;47.690;11.770;2023-05-25T08:12:48;93581.94;;;21.19;100.00
59367;BME280;45163;47.690;11.770;2023-05-25T08:15:15;93581.09;;;22.88;100.00
59367;BME280;45163;47.690;11.770;2023-05-25T08:17:41;93581.38;;;22.96;100.00
59367;BME280;45163;47.690;11.770;2023-05-25T08:20:08;93574.66;;;21.81;100.00
59367;BME280;45163;47.690;11.770;2023-05-25T08:22:35;93585.84;;;22.09;100.00
59367;BME280;45163;47.690;11.770;2023-05-25T08:25:02;93581.63;;;22.47;100.00
59367;BME280;45163;47.690;11.770;2023-05-25T08:27:28;93585.66;;;21.47;100.00
59367;BME280;45163;47.690;11.770;2023-05-25T08:29:54;93586.28;;;21.79;100.00
59367;BME280;45163;47.690;11.770;2023-05-25T08:32:20;93583.03;;;21.98;100.00
59367;BME280;45163;47.690;11.770;2023-05-25T08:34:46;93588.19;;;22.44;100.00
59367;BME280;45163;47.690;11.770;2023-05-25T08:37:12;93588.69;;;22.65;92.85
59367;BME280;45163;47.690;11.770;2023-05-25T08:39:38;93581.56;;;23.26;100.00
59367;BME280;45163;47.690;11.770;2023-05-25T08:42:04;93582.38;;;22.31;100.00
59367;BME280;45163;47.690;11.770;2023-05-25T08:44:33;93592.53;;;22.96;100.00
59367;BME280;45163;47.690;11.770;2023-05-25T08:47:04;93601.50;;;23.52;97.80
59367;BME280;45163;47.690;11.770;2023-05-25T08:49:33;93595.28;;;23.13;100.00
59367;BME280;45163;47.690;11.770;2023-05-25T08:52:02;93592.22;;;23.22;100.00
59367;BME280;45163;47.690;11.770;2023-05-25T08:54:33;93595.13;;;23.69;99.82
59367;BME280;45163;47.690;11.770;2023-05-25T08:59:59;93598.47;;;24.85;92.60
59367;BME280;45163;47.690;11.770;2023-05-25T09:05:04;93598.28;;;23.15;96.58
59367;BME280;45163;47.690;11.770;2023-05-25T09:07:33;93600.59;;;22.94;100.00
59367;BME280;45163;47.690;11.770;2023-05-25T09:10:00;93613.84;;;23.74;95.38
59367;BME280;45163;47.690;11.770;2023-05-25T09:12:28;93610.19;;;23.26;98.98
59367;BME280;45163;47.690;11.770;2023-05-25T09:14:56;93613.09;;;23.73;92.52
59367;BME280;45163;47.690;11.770;2023-05-25T09:17:25;93608.84;;;23.44;97.87
59367;BME280;45163;47.690;11.770;2023-05-25T09:19:52;93608.47;;;25.05;96.29
59367;BME280;45163;47.690;11.770;2023-05-25T09:22:18;93604.47;;;24.65;95.71
59367;BME280;45163;47.690;11.770;2023-05-25T09:24:44;93596.28;;;26.01;95.17
59367;BME280;45163;47.690;11.770;2023-05-25T09:27:16;93605.00;;;24.94;93.11
59367;BME280;45163;47.690;11.770;2023-05-25T09:29:43;93598.25;;;26.06;90.08
59367;BME280;45163;47.690;11.770;2023-05-25T09:32:09;93595.75;;;25.83;90.37
59367;BME280;45163;47.690;11.770;2023-05-25T09:34:36;93599.56;;;24.77;83.98
59367;BME280;45163;47.690;11.770;2023-05-25T09:37:05;93603.09;;;25.13;92.09
59367;BME280;45163;47.690;11.770;2023-05-25T09:39:35;93602.72;;;25.71;86.50
59367;BME280;45163;47.690;11.770;2023-05-25T09:42:01;93605.97;;;24.72;92.01
59367;BME280;45163;47.690;11.770;2023-05-25T09:44:28;93610.78;;;25.56;90.89
59367;BME280;45163;47.690;11.770;2023-05-25T09:46:54;93620.44;;;24.29;95.40
59367;BME280;45163;47.690;11.770;2023-05-25T09:49:25;93617.03;;;25.62;93.20
59367;BME280;45163;47.690;11.770;2023-05-25T09:51:54;93618.59;;;25.88;92.32
59367;BME280;45163;47.690;11.770;2023-05-25T09:54:21;93622.88;;;25.15;94.83
59367;BME280;45163;47.690;11.770;2023-05-25T09:56:47;93621.59;;;25.41;89.76
59367;BME280;45163;47.690;11.770;2023-05-25T09:59:16;93619.25;;;25.94;83.74
59367;BME280;45163;47.690;11.770;2023-05-25T10:01:50;93627.38;;;24.58;90.38
59367;BME280;45163;47.690;11.770;2023-05-25T10:04:16;93620.00;;;25.94;88.34
59367;BME280;45163;47.690;11.770;2023-05-25T10:06:49;93627.00;;;26.44;82.22
59367;BME280;45163;47.690;11.770;2023-05-25T10:09:21;93618.34;;;25.86;82.22
59367;BME280;45163;47.690;11.770;2023-05-25T10:11:50;93631.06;;;26.24;80.87
59367;BME280;45163;47.690;11.770;2023-05-25T10:14:22;93614.72;;;25.91;82.69
59367;BME280;45163;47.690;11.770;2023-05-25T10:16:58;93622.00;;;26.56;82.07
59367;BME280;45163;47.690;11.770;2023-05-25T10:19:55;93619.13;;;26.62;83.09
59367;BME280;45163;47.690;11.770;2023-05-25T10:22:29;93625.66;;;27.74;79.03
59367;BME280;45163;47.690;11.770;2023-05-25T10:27:39;93620.72;;;27.80;70.20
59367;BME280;45163;47.690;11.770;2023-05-25T10:30:07;93626.38;;;26.70;80.08
59367;BME280;45163;47.690;11.770;2023-05-25T10:32:36;93625.06;;;25.77;81.36
59367;BME280;45163;47.690;11.770;2023-05-25T10:35:04;93626.97;;;26.06;85.13
59367;BME280;45163;47.690;11.770;2023-05-25T10:37:31;93628.25;;;25.38;87.35
59367;BME280;45163;47.690;11.770;2023-05-25T10:40:01;93636.91;;;25.09;93.86
59367;BME280;45163;47.690;11.770;2023-05-25T10:42:28;93629.88;;;25.52;94.21
59367;BME280;45163;47.690;11.770;2023-05-25T10:44:55;93623.41;;;25.08;88.38
59367;BME280;45163;47.690;11.770;2023-05-25T10:47:22;93631.97;;;26.32;87.45
59367;BME280;45163;47.690;11.770;2023-05-25T10:49:56;93629.03;;;26.06;83.87
59367;BME280;45163;47.690;11.770;2023-05-25T10:52:27;93635.75;;;26.16;86.75
59367;BME280;45163;47.690;11.770;2023-05-25T10:54:55;93624.34;;;26.52;91.14
59367;BME280;45163;47.690;11.770;2023-05-25T10:57:25;93629.69;;;25.20;92.24
59367;BME280;45163;47.690;11.770;2023-05-25T11:00:00;93628.75;;;26.47;88.38
59367;BME280;45163;47.690;11.770;2023-05-25T11:02:27;93627.13;;;27.03;81.31
59367;BME280;45163;47.690;11.770;2023-05-25T11:08:01;93628.78;;;27.12;81.00
59367;BME280;45163;47.690;11.770;2023-05-25T11:13:21;93636.94;;;26.96;84.48
59367;BME280;45163;47.690;11.770;2023-05-25T11:16:13;93634.00;;;26.70;81.78
59367;BME280;45163;47.690;11.770;2023-05-25T11:18:40;93634.94;;;26.40;84.07
59367;BME280;45163;47.690;11.770;2023-05-25T11:26:20;93623.38;;;26.30;83.96
59367;BME280;45163;47.690;11.770;2023-05-25T11:28:53;93617.53;;;26.28;84.30
59367;BME280;45163;47.690;11.770;2023-05-25T11:31:29;93623.97;;;26.23;84.22
59367;BME280;45163;47.690;11.770;2023-05-25T11:34:02;93619.72;;;25.24;91.25
59367;BME280;45163;47.690;11.770;2023-05-25T11:36:30;93621.59;;;25.41;88.18
59367;BME280;45163;47.690;11.770;2023-05-25T11:39:04;93620.50;;;26.87;84.69
59367;BME280;45163;47.690;11.770;2023-05-25T11:41:30;93622.97;;;26.58;80.79
59367;BME280;45163;47.690;11.770;2023-05-25T11:44:04;93619.66;;;26.60;82.47
59367;BME280;45163;47.690;11.770;2023-05-25T11:46:33;93609.25;;;27.38;77.14
59367;BME280;45163;47.690;11.770;2023-05-25T11:49:01;93613.75;;;26.64;79.21
59367;BME280;45163;47.690;11.770;2023-05-25T11:51:29;93613.16;;;27.16;81.16
59367;BME280;45163;47.690;11.770;2023-05-25T11:53:55;93618.97;;;26.54;86.89
59367;BME280;45163;47.690;11.770;2023-05-25T11:56:21;93614.50;;;27.28;81.51
59367;BME280;45163;47.690;11.770;2023-05-25T11:58:51;93619.28;;;27.47;76.66
59367;BME280;45163;47.690;11.770;2023-05-25T12:01:17;93622.84;;;27.74;75.94
59367;BME280;45163;47.690;11.770;2023-05-25T12:03:48;93615.38;;;28.16;77.69
59367;BME280;45163;47.690;11.770;2023-05-25T12:06:31;93614.44;;;26.83;81.38
59367;BME280;45163;47.690;11.770;2023-05-25T12:09:10;93616.94;;;26.54;84.19
59367;BME280;45163;47.690;11.770;2023-05-25T12:11:37;93628.28;;;26.62;80.22
59367;BME280;45163;47.690;11.770;2023-05-25T12:14:05;93618.72;;;26.71;79.11
59367;BME280;45163;47.690;11.770;2023-05-25T12:16:33;93615.81;;;26.25;84.06
59367;BME280;45163;47.690;11.770;2023-05-25T12:19:00;93618.88;;;27.83;73.66
59367;BME280;45163;47.690;11.770;2023-05-25T12:21:27;93625.50;;;27.26;76.01
59367;BME280;45163;47.690;11.770;2023-05-25T12:23:53;93612.19;;;27.86;75.97
59367;BME280;45163;47.690;11.770;2023-05-25T12:26:19;93615.91;;;27.35;75.68
59367;BME280;45163;47.690;11.770;2023-05-25T12:29:05;93627.06;;;26.39;81.50
59367;BME280;45163;47.690;11.770;2023-05-25T12:31:33;93619.91;;;27.53;76.17
59367;BME280;45163;47.690;11.770;2023-05-25T12:36:57;93617.06;;;26.24;81.48
59367;BME280;45163;47.690;11.770;2023-05-25T12:41:59;93602.44;;;27.47;80.63
59367;BME280;45163;47.690;11.770;2023-05-25T12:44:29;93608.47;;;27.38;77.07
59367;BME280;45163;47.690;11.770;2023-05-25T12:47:15;93611.72;;;28.90;72.26
59367;BME280;45163;47.690;11.770;2023-05-25T12:49:51;93609.81;;;29.26;64.98
59367;BME280;45163;47.690;11.770;2023-05-25T12:52:31;93609.94;;;29.21;64.32
59367;BME280;45163;47.690;11.770;2023-05-25T12:55:26;93619.63;;;26.41;78.47
59367;BME280;45163;47.690;11.770;2023-05-25T13:00:30;93602.25;;;27.98;77.89
59367;BME280;45163;47.690;11.770;2023-05-25T13:02:57;93611.88;;;27.76;72.26
59367;BME280;45163;47.690;11.770;2023-05-25T13:05:25;93609.09;;;27.17;79.03
59367;BME280;45163;47.690;11.770;2023-05-25T13:07:53;93612.38;;;28.62;72.78
59367;BME280;45163;47.690;11.770;2023-05-25T13:10:20;93611.91;;;28.23;71.85
59367;BME280;45163;47.690;11.770;2023-05-25T13:12:50;93619.28;;;27.60;72.07
59367;BME280;45163;47.690;11.770;2023-05-25T13:15:18;93612.38;;;27.88;74.15
59367;BME280;45163;47.690;11.770;2023-05-25T13:17:49;93607.72;;;28.03;71.93
59367;BME280;45163;47.690;11.770;2023-05-25T13:20:17;93606.16;;;28.42;68.15